Davenport, Iowa
Current Conditions -  °F | °C
As of 3:52 PM on Wednesday 22 Oct 2014 (Local Time) from KDVN Reporting Station
Clear Clear  
Wind Chill: 16°   Ceiling: Unl
Heat Index: 16°   Visibility: 10mi
Dew Point:   Wind: 14mph
Humidity: 41%   Direction: 140°SE
Pressure: 30.24"   Gusts: NA
Location:  41.54°N, 90.58°W
Report Text: KDVN 222052Z AUTO 14012KT 10SM CLR 16/02 A3024 RMK AO2 SLP244 T01560022 56020 TSNO
Loading
Personal Weather Stations






























Interactive Weather Map
Tropical Storm Tracking
New forecast layout! Learn more

10-Day Weather Forecast

Advertisements
Track Severe Weather on mobile